createdAt,value
2022-08-02T00:00:56.837Z,1.25
2022-08-02T00:03:24.634Z,1.20
2022-08-02T00:05:53.045Z,1.73
2022-08-02T00:08:22.003Z,1.10
2022-08-02T00:10:49.417Z,1.00
2022-08-02T00:13:16.874Z,1.08
2022-08-02T00:15:44.164Z,1.10
2022-08-02T00:18:11.397Z,1.52
2022-08-02T00:20:38.751Z,1.15
2022-08-02T00:23:06.015Z,1.80
2022-08-02T00:25:33.314Z,1.60
2022-08-02T00:28:00.938Z,1.27
2022-08-02T00:30:28.204Z,1.73
2022-08-02T00:32:55.534Z,1.23
2022-08-02T00:35:22.810Z,1.33
2022-08-02T00:37:50.143Z,0.93
2022-08-02T00:40:23.479Z,1.33
2022-08-02T00:43:07.193Z,1.00
2022-08-02T00:46:02.734Z,1.02
2022-08-02T00:48:23.718Z,1.33
2022-08-02T00:50:51.065Z,0.82
2022-08-02T00:53:18.452Z,1.30
2022-08-02T00:55:46.072Z,0.90
2022-08-02T00:58:13.334Z,1.00
2022-08-02T01:00:40.763Z,0.95
2022-08-02T01:03:08.110Z,0.98
2022-08-02T01:05:55.781Z,1.20
2022-08-02T01:08:22.805Z,0.98
2022-08-02T01:10:56.995Z,1.40
2022-08-02T01:13:25.075Z,1.58
2022-08-02T01:16:01.001Z,2.17
2022-08-02T01:18:33.428Z,1.48
2022-08-02T01:21:23.964Z,0.95
2022-08-02T01:24:12.471Z,1.73
2022-08-02T01:27:09.609Z,1.70
2022-08-02T01:29:43.837Z,1.58
2022-08-02T01:32:23.821Z,1.45
2022-08-02T01:35:09.214Z,1.80
2022-08-02T01:37:57.562Z,1.58
2022-08-02T01:40:30.769Z,1.20
2022-08-02T01:43:00.647Z,1.40
2022-08-02T01:45:33.228Z,1.40
2022-08-02T01:48:01.760Z,1.23
2022-08-02T01:50:34.006Z,1.02
2022-08-02T01:53:06.808Z,1.30
2022-08-02T01:55:57.430Z,1.75
2022-08-02T01:58:31.609Z,1.05
2022-08-02T02:01:01.434Z,1.00
2022-08-02T02:03:30.899Z,0.88
2022-08-02T02:06:03.558Z,1.05
2022-08-02T02:08:51.384Z,1.25
2022-08-02T02:12:06.133Z,0.90
2022-08-02T02:14:10.031Z,0.98
2022-08-02T02:16:38.757Z,1.90
2022-08-02T02:19:07.823Z,0.82
2022-08-02T02:21:35.286Z,1.00
2022-08-02T02:24:05.928Z,1.10
2022-08-02T02:26:47.109Z,0.85
2022-08-02T02:29:22.311Z,1.13
2022-08-02T02:31:53.308Z,0.70
2022-08-02T02:34:35.706Z,0.63
2022-08-02T02:37:06.294Z,1.10
2022-08-02T02:39:34.931Z,0.95
2022-08-02T02:42:08.143Z,0.88
2022-08-02T02:44:38.746Z,0.95
2022-08-02T02:47:08.277Z,0.85
2022-08-02T02:49:36.836Z,0.75
2022-08-02T02:52:06.310Z,1.60
2022-08-02T02:54:35.517Z,1.23
2022-08-02T02:57:05.544Z,0.90
2022-08-02T02:59:35.902Z,0.95
2022-08-02T03:02:05.192Z,0.80
2022-08-02T03:04:55.824Z,0.63
2022-08-02T03:07:22.237Z,0.90
2022-08-02T03:09:54.390Z,0.52
2022-08-02T03:12:30.203Z,0.70
2022-08-02T03:15:00.933Z,0.70
2022-08-02T03:17:38.962Z,0.77
2022-08-02T03:20:11.572Z,1.00
2022-08-02T03:22:39.102Z,0.52
2022-08-02T03:25:07.885Z,0.63
2022-08-02T03:27:35.209Z,0.70
2022-08-02T03:30:02.794Z,0.45
2022-08-02T03:32:30.292Z,0.73
2022-08-02T03:34:57.858Z,0.45
2022-08-02T03:37:26.269Z,0.40
2022-08-02T03:39:54.933Z,0.52
2022-08-02T03:42:23.059Z,0.60
2022-08-02T03:44:51.976Z,0.57
2022-08-02T03:47:20.174Z,0.50
2022-08-02T03:49:48.098Z,0.40
2022-08-02T03:52:16.657Z,0.40
2022-08-02T03:54:45.904Z,0.40
2022-08-02T03:57:14.051Z,0.30
2022-08-02T03:59:43.511Z,0.40
2022-08-02T04:02:11.770Z,0.38
2022-08-02T04:04:39.764Z,0.35
2022-08-02T04:07:07.758Z,0.30
2022-08-02T04:09:35.304Z,0.68
2022-08-02T04:12:02.610Z,0.38
2022-08-02T04:14:31.543Z,0.30
2022-08-02T04:17:07.986Z,0.30
2022-08-02T04:19:40.067Z,0.30
2022-08-02T04:22:11.451Z,0.38
2022-08-02T04:24:47.490Z,0.40
2022-08-02T04:27:50.086Z,0.40
2022-08-02T04:30:07.446Z,0.40
2022-08-02T04:32:36.028Z,0.40
2022-08-02T04:35:20.408Z,0.40
2022-08-02T04:38:08.353Z,0.40
2022-08-02T04:40:37.628Z,0.40
2022-08-02T04:43:05.106Z,0.52
2022-08-02T04:45:32.802Z,0.50
2022-08-02T04:48:07.406Z,0.55
2022-08-02T04:50:35.695Z,0.82
2022-08-02T04:53:02.977Z,0.30
2022-08-02T04:55:30.377Z,0.40
2022-08-02T04:57:59.137Z,0.43
2022-08-02T05:00:28.096Z,0.40
2022-08-02T05:03:00.409Z,0.40
2022-08-02T05:05:28.350Z,0.38
2022-08-02T05:07:55.940Z,0.40
2022-08-02T05:10:23.775Z,0.50
2022-08-02T05:12:51.128Z,0.40
2022-08-02T05:15:19.641Z,0.47
2022-08-02T05:17:48.819Z,0.30
2022-08-02T05:20:18.015Z,0.30
2022-08-02T05:22:45.744Z,0.30
2022-08-02T05:25:13.165Z,0.40
2022-08-02T05:27:40.641Z,0.25
2022-08-02T05:30:09.685Z,0.30
2022-08-02T05:32:44.525Z,0.30
2022-08-02T05:35:12.181Z,0.30
2022-08-02T05:37:39.680Z,0.30
2022-08-02T05:40:12.882Z,0.30
2022-08-02T05:42:41.718Z,0.30
2022-08-02T05:45:09.346Z,0.30
2022-08-02T05:47:37.248Z,0.30
2022-08-02T05:50:08.995Z,0.30
2022-08-02T05:53:14.854Z,0.40
2022-08-02T05:55:57.780Z,0.20
2022-08-02T05:58:31.333Z,0.30
2022-08-02T06:01:03.600Z,0.25
2022-08-02T06:03:46.430Z,0.30
2022-08-02T06:06:16.378Z,0.40
2022-08-02T06:08:50.612Z,0.30
2022-08-02T06:11:22.612Z,0.30
2022-08-02T06:13:50.523Z,0.30
2022-08-02T06:16:32.566Z,0.50
2022-08-02T06:19:01.313Z,0.30
2022-08-02T06:22:32.329Z,0.30
2022-08-02T06:24:22.460Z,0.40
2022-08-02T06:26:55.241Z,0.45
2022-08-02T06:29:23.370Z,0.38
2022-08-02T06:31:53.572Z,0.43
2022-08-02T06:34:20.868Z,0.65
2022-08-02T06:36:55.103Z,0.75
2022-08-02T06:39:32.463Z,1.30
2022-08-02T06:42:05.993Z,0.70
2022-08-02T06:44:48.021Z,1.20
2022-08-02T06:47:18.480Z,0.80
2022-08-02T06:49:51.773Z,0.82
2022-08-02T06:52:27.666Z,1.15
2022-08-02T06:54:56.980Z,0.70
2022-08-02T06:57:24.225Z,0.60
2022-08-02T06:59:51.821Z,0.73
2022-08-02T07:02:19.332Z,0.65
2022-08-02T07:04:46.603Z,0.70
2022-08-02T07:07:13.952Z,0.80
2022-08-02T07:09:56.603Z,0.90
2022-08-02T07:12:30.882Z,0.55
2022-08-02T07:14:59.984Z,0.75
2022-08-02T07:17:28.559Z,0.60
2022-08-02T07:19:56.582Z,0.70
2022-08-02T07:22:24.851Z,0.65
2022-08-02T07:24:54.399Z,0.60
2022-08-02T07:27:22.393Z,0.60
2022-08-02T07:29:49.798Z,0.68
2022-08-02T07:32:18.306Z,0.47
2022-08-02T07:34:51.294Z,0.60
2022-08-02T07:37:52.970Z,0.57
2022-08-02T07:40:14.787Z,0.70
2022-08-02T07:42:45.861Z,0.60
2022-08-02T07:45:14.110Z,0.40
2022-08-02T07:47:42.609Z,0.55
2022-08-02T07:50:12.442Z,0.50
2022-08-02T07:52:41.297Z,0.60
2022-08-02T07:55:10.034Z,0.50
2022-08-02T07:57:42.524Z,1.05
2022-08-02T08:00:13.731Z,0.80
2022-08-02T08:02:41.145Z,0.80
2022-08-02T08:05:08.840Z,0.50
2022-08-02T08:07:36.456Z,0.50
2022-08-02T08:10:05.747Z,0.50
2022-08-02T08:12:33.710Z,0.55
2022-08-02T08:15:01.013Z,0.57
2022-08-02T08:17:28.358Z,0.70
2022-08-02T08:19:55.875Z,0.50
2022-08-02T08:22:23.675Z,0.50
2022-08-02T08:24:51.477Z,0.35
2022-08-02T08:27:19.825Z,0.35
2022-08-02T08:29:47.139Z,0.40
2022-08-02T08:32:17.743Z,0.43
2022-08-02T08:34:46.709Z,0.40
2022-08-02T08:37:17.169Z,0.38
2022-08-02T08:39:58.258Z,0.50
2022-08-02T08:42:31.121Z,0.40
2022-08-02T08:49:09.514Z,0.57
2022-08-02T08:51:39.037Z,0.40
2022-08-02T08:54:10.807Z,0.30
2022-08-02T08:56:40.027Z,0.57
2022-08-02T08:59:11.820Z,0.40
2022-08-02T09:01:50.603Z,0.38
2022-08-02T09:04:19.933Z,0.45
2022-08-02T09:06:47.703Z,0.40
2022-08-02T09:09:15.167Z,0.50
2022-08-02T09:11:42.499Z,0.40
2022-08-02T09:14:10.025Z,0.40
2022-08-02T09:16:43.598Z,0.30
2022-08-02T09:19:18.783Z,0.40
2022-08-02T09:21:48.650Z,0.40
2022-08-02T09:24:20.840Z,0.40
2022-08-02T09:26:49.698Z,0.50
2022-08-02T09:29:19.775Z,0.40
2022-08-02T09:31:50.226Z,0.30
2022-08-02T09:34:19.764Z,0.40
2022-08-02T09:36:48.522Z,0.35
2022-08-02T09:39:23.962Z,0.50
2022-08-02T09:41:51.306Z,0.30
2022-08-02T09:44:18.687Z,0.20
2022-08-02T09:46:47.105Z,0.40
2022-08-02T09:49:17.147Z,0.30
2022-08-02T09:51:47.675Z,0.20
2022-08-02T09:54:25.930Z,0.30
2022-08-02T09:56:59.624Z,0.25
2022-08-02T09:59:28.380Z,0.20
2022-08-02T10:02:02.566Z,0.20
2022-08-02T10:04:52.147Z,0.20
2022-08-02T10:07:22.805Z,0.20
2022-08-02T10:09:51.592Z,0.17
2022-08-02T10:12:22.464Z,0.20
2022-08-02T10:14:53.118Z,0.10
2022-08-02T10:17:21.567Z,0.17
2022-08-02T10:20:01.873Z,0.20
2022-08-02T10:22:32.779Z,0.20
2022-08-02T10:25:03.908Z,0.10
2022-08-02T10:27:49.321Z,0.20
2022-08-02T10:30:23.963Z,0.10
2022-08-02T10:32:54.789Z,0.20
2022-08-02T10:35:25.134Z,0.10
2022-08-02T10:38:03.907Z,0.10
2022-08-02T10:40:44.657Z,0.20
2022-08-02T10:43:13.220Z,0.20
2022-08-02T10:45:40.663Z,0.10
2022-08-02T10:48:14.811Z,0.20
2022-08-02T10:50:48.558Z,0.10
2022-08-02T10:53:42.675Z,0.17
2022-08-02T10:56:10.032Z,0.20
2022-08-02T10:58:39.834Z,0.10
2022-08-02T11:01:38.518Z,0.15
2022-08-02T11:04:10.485Z,0.20
2022-08-02T11:07:19.717Z,0.20
2022-08-02T11:09:51.384Z,0.10
2022-08-02T11:12:21.126Z,0.20
2022-08-02T11:15:07.590Z,0.20
2022-08-02T11:17:56.002Z,0.20
2022-08-02T11:20:24.989Z,0.20
2022-08-02T11:22:57.009Z,0.20
2022-08-02T11:25:24.623Z,0.20
2022-08-02T11:28:08.880Z,0.20
2022-08-02T11:30:43.971Z,0.10
2022-08-02T11:33:15.151Z,0.22
2022-08-02T11:35:46.685Z,0.30
2022-08-02T11:38:19.391Z,0.20
2022-08-02T11:40:48.445Z,0.20
2022-08-02T11:43:25.263Z,0.30
2022-08-02T11:45:53.926Z,0.22
2022-08-02T11:48:31.751Z,0.30
2022-08-02T11:51:12.863Z,0.30
2022-08-02T11:53:54.566Z,0.30
2022-08-02T11:56:32.991Z,0.30
2022-08-02T11:59:14.648Z,0.40
2022-08-02T12:02:08.509Z,0.40
2022-08-02T12:04:36.395Z,0.30
2022-08-02T12:07:05.285Z,0.40
2022-08-02T12:09:40.732Z,0.40
2022-08-02T12:12:08.623Z,0.50
2022-08-02T12:14:44.264Z,0.60
2022-08-02T12:17:30.021Z,0.75
2022-08-02T12:19:57.842Z,0.40
2022-08-02T12:22:27.813Z,0.47
2022-08-02T12:24:57.447Z,0.40
2022-08-02T12:27:34.323Z,0.47
2022-08-02T12:30:27.577Z,0.52
2022-08-02T12:33:13.237Z,0.40
2022-08-02T12:35:41.367Z,0.55
2022-08-02T12:38:13.473Z,0.50
2022-08-02T12:40:42.025Z,0.40
2022-08-02T12:43:18.925Z,0.40
2022-08-02T12:45:57.617Z,0.40
2022-08-02T12:48:38.051Z,0.30
2022-08-02T12:51:24.725Z,0.50
2022-08-02T12:54:31.563Z,0.50
2022-08-02T12:57:11.778Z,0.40
2022-08-02T12:59:42.584Z,0.60
2022-08-02T13:02:13.333Z,0.38
2022-08-02T13:04:41.996Z,0.30
2022-08-02T13:07:18.542Z,0.45
2022-08-02T13:09:48.647Z,0.40
2022-08-02T13:12:39.957Z,0.40
2022-08-02T13:15:12.271Z,0.40
2022-08-02T13:18:24.152Z,0.20
2022-08-02T13:20:57.779Z,0.20
2022-08-02T13:23:53.961Z,0.20
2022-08-02T13:26:16.942Z,0.30
2022-08-02T13:28:50.561Z,0.20
2022-08-02T13:31:35.981Z,0.30
2022-08-02T13:34:07.848Z,0.30
2022-08-02T13:36:36.502Z,0.20
2022-08-02T13:39:05.847Z,0.30
2022-08-02T13:41:33.393Z,0.20
2022-08-02T13:44:09.467Z,0.20
2022-08-02T13:46:45.370Z,0.30
2022-08-02T13:49:19.815Z,0.30
2022-08-02T13:51:48.470Z,0.30
2022-08-02T13:54:17.396Z,0.30
2022-08-02T13:56:48.800Z,0.20
2022-08-02T14:02:13.750Z,0.20
2022-08-02T14:04:46.324Z,0.20
2022-08-02T14:07:28.979Z,0.30
2022-08-02T14:09:56.440Z,0.20
2022-08-02T14:12:28.265Z,0.30
2022-08-02T14:14:55.558Z,0.20
2022-08-02T14:17:23.018Z,0.30
2022-08-02T14:20:10.421Z,0.30
2022-08-02T14:27:09.581Z,0.40
2022-08-02T14:30:20.397Z,0.40
2022-08-02T14:32:47.645Z,0.30
2022-08-02T14:35:52.367Z,0.30
2022-08-02T14:38:54.946Z,0.40
2022-08-02T14:41:23.169Z,0.30
2022-08-02T14:44:05.455Z,0.30
2022-08-02T14:46:34.628Z,0.30
2022-08-02T14:49:07.848Z,0.30
2022-08-02T14:51:38.877Z,0.38
2022-08-02T14:54:08.640Z,0.40
2022-08-02T14:56:39.759Z,0.30
2022-08-02T14:59:07.150Z,0.45
2022-08-02T15:01:34.761Z,0.40
2022-08-02T15:04:02.310Z,0.60
2022-08-02T15:06:33.183Z,0.30
2022-08-02T15:09:01.106Z,0.30
2022-08-02T15:11:28.485Z,0.40
2022-08-02T15:13:59.129Z,0.50
2022-08-02T15:16:47.252Z,0.45
2022-08-02T15:19:15.212Z,0.40
2022-08-02T15:21:52.701Z,0.68
2022-08-02T15:24:22.257Z,0.60
2022-08-02T15:26:50.885Z,0.75
2022-08-02T15:29:18.723Z,0.82
2022-08-02T15:31:46.629Z,0.70
2022-08-02T15:34:16.221Z,0.90
2022-08-02T15:36:46.299Z,0.80
2022-08-02T15:39:13.848Z,0.70
2022-08-02T15:41:41.725Z,0.70
2022-08-02T15:44:16.878Z,0.50
2022-08-02T15:46:57.652Z,0.50
2022-08-02T15:49:25.488Z,0.70
2022-08-02T15:51:54.074Z,0.60
2022-08-02T15:57:07.332Z,0.60
2022-08-02T15:59:35.925Z,0.50
2022-08-02T16:02:04.253Z,0.50
2022-08-02T16:04:35.302Z,0.50
2022-08-02T16:07:02.823Z,0.50
2022-08-02T16:09:30.223Z,0.60
2022-08-02T16:11:57.675Z,0.60
2022-08-02T16:14:36.655Z,0.70
2022-08-02T16:17:04.505Z,0.60
2022-08-02T16:19:49.023Z,0.52
2022-08-02T16:22:17.378Z,0.60
2022-08-02T16:24:44.797Z,0.50
2022-08-02T16:27:12.669Z,0.68
2022-08-02T16:29:40.994Z,0.50
2022-08-02T16:32:08.598Z,0.60
2022-08-02T16:35:14.923Z,0.60
2022-08-02T16:46:06.818Z,0.60
2022-08-02T16:48:37.705Z,0.60
2022-08-02T16:51:13.443Z,0.50
2022-08-02T16:53:59.227Z,0.73
2022-08-02T16:56:29.390Z,0.65
2022-08-02T16:58:58.772Z,0.70
2022-08-02T17:02:11.845Z,0.65
2022-08-02T17:04:16.116Z,0.90
2022-08-02T17:10:04.095Z,0.77
2022-08-02T17:12:22.454Z,0.80
2022-08-02T17:14:55.166Z,0.90
2022-08-02T17:17:34.003Z,0.80
2022-08-02T17:20:03.051Z,0.68
2022-08-02T17:22:30.601Z,0.85
2022-08-02T17:25:05.182Z,0.70
2022-08-02T17:27:32.795Z,0.77
2022-08-02T17:30:00.417Z,0.80
2022-08-02T17:32:29.257Z,0.68
2022-08-02T17:35:00.234Z,0.80
2022-08-02T17:37:31.818Z,0.88
2022-08-02T17:40:00.879Z,0.80
2022-08-02T17:42:29.129Z,0.68
2022-08-02T17:45:00.837Z,0.70
2022-08-02T17:47:42.034Z,0.60
2022-08-02T17:50:12.382Z,0.60
2022-08-02T17:52:50.558Z,0.60
2022-08-02T17:55:20.901Z,0.60
2022-08-02T17:57:58.286Z,0.57
2022-08-02T18:00:35.853Z,0.70
2022-08-02T18:03:09.944Z,0.70
2022-08-02T18:05:41.886Z,0.50
2022-08-02T18:08:22.776Z,0.60
2022-08-02T18:10:52.943Z,0.50
2022-08-02T18:13:21.068Z,0.60
2022-08-02T18:15:49.772Z,0.60
2022-08-02T18:18:19.242Z,0.70
2022-08-02T18:20:57.583Z,0.63
2022-08-02T18:23:25.096Z,0.50
2022-08-02T18:25:55.418Z,0.50
2022-08-02T18:28:26.729Z,0.47
2022-08-02T18:31:22.993Z,0.50
2022-08-02T18:33:58.637Z,0.45
2022-08-02T18:36:29.649Z,0.40
2022-08-02T18:38:57.820Z,0.50
2022-08-02T18:41:25.722Z,0.43
2022-08-02T18:43:56.117Z,0.60
2022-08-02T18:46:24.908Z,0.50
2022-08-02T18:48:58.353Z,0.70
2022-08-02T18:51:36.704Z,0.60
2022-08-02T18:54:05.186Z,0.40
2022-08-02T18:56:32.794Z,0.60
2022-08-02T18:59:06.293Z,0.40
2022-08-02T19:01:40.347Z,0.50
2022-08-02T19:04:27.582Z,0.40
2022-08-02T19:06:56.820Z,0.52
2022-08-02T19:09:34.689Z,0.43
2022-08-02T19:12:04.444Z,0.50
2022-08-02T19:14:32.144Z,0.40
2022-08-02T19:17:54.168Z,0.40
2022-08-02T19:19:47.872Z,0.52
2022-08-02T19:22:20.249Z,0.50
2022-08-02T19:24:50.494Z,0.40
2022-08-02T19:27:26.219Z,0.63
2022-08-02T19:30:07.698Z,0.50
2022-08-02T19:32:40.198Z,0.60
2022-08-02T19:35:29.523Z,0.52
2022-08-02T19:38:08.775Z,0.60
2022-08-02T19:40:38.916Z,0.47
2022-08-02T19:44:25.147Z,0.63
2022-08-02T19:45:57.007Z,0.57
2022-08-02T19:48:27.123Z,0.60
2022-08-02T19:51:00.760Z,0.70
2022-08-02T19:53:47.098Z,0.50
2022-08-02T19:56:20.509Z,0.50
2022-08-02T19:58:51.268Z,0.50
2022-08-02T20:01:23.509Z,0.40
2022-08-02T20:03:55.264Z,0.70
2022-08-02T20:06:29.716Z,0.70
2022-08-02T20:09:01.347Z,0.65
2022-08-02T20:11:39.204Z,0.70
2022-08-02T20:14:08.504Z,0.50
2022-08-02T20:16:36.655Z,0.70
2022-08-02T20:19:07.732Z,0.60
2022-08-02T20:21:37.199Z,0.50
2022-08-02T20:24:07.082Z,0.82
2022-08-02T20:26:49.047Z,0.50
2022-08-02T20:29:42.439Z,0.60
2022-08-02T20:32:05.252Z,0.50
2022-08-02T20:34:33.614Z,0.50
2022-08-02T20:38:01.283Z,0.47
2022-08-02T20:39:53.725Z,0.60
2022-08-02T20:42:22.854Z,0.55
2022-08-02T20:44:54.789Z,0.50
2022-08-02T20:47:28.366Z,0.50
2022-08-02T20:50:30.611Z,0.50
2022-08-02T20:53:06.069Z,0.50
2022-08-02T20:55:35.892Z,0.50
2022-08-02T20:58:06.814Z,0.50
2022-08-02T21:00:40.335Z,0.40
2022-08-02T21:03:14.356Z,0.43
2022-08-02T21:05:43.746Z,0.60
2022-08-02T21:11:12.886Z,0.65
2022-08-02T21:13:46.567Z,0.70
2022-08-02T21:16:18.365Z,0.60
2022-08-02T21:19:03.224Z,0.88
2022-08-02T21:21:40.601Z,0.73
2022-08-02T21:24:11.303Z,0.90
2022-08-02T21:26:40.736Z,0.77
2022-08-02T21:29:09.581Z,0.80
2022-08-02T21:31:37.596Z,0.93
2022-08-02T21:34:26.734Z,0.68
2022-08-02T21:37:01.402Z,0.70
2022-08-02T21:39:37.676Z,0.70
2022-08-02T21:42:06.408Z,0.75
2022-08-02T21:44:36.370Z,1.23
2022-08-02T21:47:11.246Z,0.85
2022-08-02T21:52:25.971Z,0.80
2022-08-02T21:54:56.916Z,0.70
2022-08-02T21:57:25.918Z,0.80
2022-08-02T22:00:02.615Z,0.77
2022-08-02T22:02:36.048Z,0.88
2022-08-02T22:05:03.676Z,0.70
2022-08-02T22:07:38.423Z,0.80
2022-08-02T22:10:06.582Z,0.68
2022-08-02T22:12:39.287Z,0.63
2022-08-02T22:15:11.855Z,0.70
2022-08-02T22:17:51.867Z,0.60
2022-08-02T22:20:29.277Z,0.60
2022-08-02T22:23:02.332Z,0.60
2022-08-02T22:25:37.428Z,0.70
2022-08-02T22:28:39.373Z,0.88
2022-08-02T22:31:01.165Z,1.00
2022-08-02T22:34:00.281Z,0.70
2022-08-02T22:36:30.971Z,0.60
2022-08-02T22:38:58.965Z,0.70
2022-08-02T22:42:01.153Z,0.70
2022-08-02T22:44:29.174Z,0.95
2022-08-02T22:46:56.629Z,0.98
2022-08-02T22:49:38.707Z,1.02
2022-08-02T22:52:11.120Z,1.00
2022-08-02T22:54:38.438Z,0.80
2022-08-02T22:57:06.503Z,1.08
2022-08-02T22:58:36.733Z,0.95
2022-08-02T22:59:01.944Z,0.60
2022-08-02T22:59:36.545Z,0.95
2022-08-02T23:02:07.096Z,0.93
2022-08-02T23:04:34.442Z,0.85
2022-08-02T23:07:01.807Z,0.90
2022-08-02T23:09:29.322Z,1.02
2022-08-02T23:11:56.612Z,0.93
2022-08-02T23:14:23.973Z,1.00
2022-08-02T23:17:09.582Z,1.02
2022-08-02T23:19:51.971Z,0.80
2022-08-02T23:22:29.267Z,1.02
2022-08-02T23:25:00.904Z,1.10
2022-08-02T23:27:29.075Z,1.30
2022-08-02T23:29:56.371Z,1.30
2022-08-02T23:32:25.760Z,0.90
2022-08-02T23:34:54.417Z,0.80
2022-08-02T23:37:22.698Z,0.82
2022-08-02T23:39:51.302Z,1.00
2022-08-02T23:42:19.053Z,0.80
2022-08-02T23:44:46.866Z,0.88
2022-08-02T23:47:14.340Z,0.90
2022-08-02T23:49:41.844Z,1.00
2022-08-02T23:52:09.777Z,1.17
2022-08-02T23:54:37.268Z,1.08
2022-08-02T23:57:20.462Z,0.90
2022-08-02T23:59:51.224Z,0.90
